AirNav   Air Wisconsin Up To $57,000 Bonus
 
 423 users online  

12I Brookville Reservoir Seaplane Base
Brookville, Indiana, USA

GOING TO BROOKVILLE?


FAA INFORMATION EFFECTIVE 22 APRIL 2021

Location

FAA Identifier: 12I
Lat/Long: 39-31-59.9000N 085-00-02.0000W
39-31.998333N 085-00.033333W
39.5333056,-85.0005556
(estimated)
Elevation: 748 ft. / 228 m (estimated)
Variation: 03W (1985)
From city: 6 miles N of BROOKVILLE, IN
Time zone: UTC -4 (UTC -5 during Standard Time)
Zip code: 47003

Seaplane Base Operations

Seaplane Base use: Open to the public
Activation date: 09/1980
Control tower: no
ARTCC: INDIANAPOLIS CENTER
FSS: TERRE HAUTE FLIGHT SERVICE STATION
NOTAMs facility: HUF (NOTAM-D service available)
Attendance: UNATNDD
Segmented circle: no

Seaplane Base Communications

CTAF: 122.9
WX AWOS-3PT at OXD (10 nm E): 118.625 (513-273-2032)
WX AWOS-3 at CEV (12 nm NW): 118.325 (765-827-6649)
WX AWOS-3 at RID (15 nm NE): 121.225 (765-983-1903)
WX AWOS-3 at HLB (17 nm SW): 122.725 (812-933-0108)
WX AWOS-3PT at I67 (20 nm SE): 118.15 (513-569-4964)

Nearby radio navigation aids

VOR radial/distance  VOR name  Freq  Var
CVGr340/34.0CINCINNATI VORTAC117.3004W
SHBr098/38.6SHELBYVILLE VOR/DME112.0001E

 
NDB name  Hdg/Dist  Freq  Var  ID
BATESVILLE052/16.425405WHLB .... .-.. -...
NEW CASTLE151/25.538506WUWL ..- .-- .-..
HOOK FIELD279/25.723904WHKF .... -.- ..-.

Seaplane Base Services

Runway Information

Runway N/S

Dimensions: 25000 x 2000 ft. / 7620 x 610 m
Surface: water
RUNWAY N  RUNWAY S
Traffic pattern: leftleft
Obstructions: nonebrdg

Runway 18W/36W

Dimensions: 16000 x 2000 ft. / 4877 x 610 m
Surface: water
RUNWAY 18W  RUNWAY 36W
Latitude: 39-33.315580N39-30.679748N
Longitude: 085-00.061125W085-00.006357W
Elevation: 748.0 ft.748.0 ft.
Traffic pattern: leftleft
Runway heading: 182 magnetic, 179 true002 magnetic, 359 true
Obstructions: nonebridge

Seaplane Base Ownership and Management from official FAA records

Ownership: Publicly-owned
Owner: DEPT OF NATURAL RESOURCES
402 W. WASHINGTON ST., RM. 2-255D
INDIANAPOLIS, IN 46204
Phone (317) 232-0935
EXT. 0
Manager: LT. KENTON TURNER
402 W. WASHINGTON ST, RM. 2-255D
INDIANAPOLIS, IN 46204
Phone (317) 232-0935
EXT. 0

Seaplane Base Operational Statistics

Aircraft operations: 12/year *
100% transient general aviation
* for 12-month period ending 31 December 2019

Additional Remarks

2 N/S RWYS: ONE 25000'S OF BRIDGE & ONE 16000'N OF BRIDGE AT MID-POINT OF LAKE.
SEAPLANE OPNS PROHIBITED BTN SS-SR.
LAKE USE PERMIT REQUIRED. CALL 765 647-2657.
EXPECT HVY BOAT TRAFFIC BETWEEN MEMORIAL DAY AND LABOR DAY.
FOR CD CTC CINCINNATI APCH AT 859-372-6440

Instrument Procedures

There are no published instrument procedures at 12I.

Some nearby airports with instrument procedures:

KOXD - Miami University Airport (10 nm E)
KCEV - Mettel Field Airport (12 nm NW)
KRID - Richmond Municipal Airport (15 nm NE)
I67 - Cincinnati West Airport (20 nm SE)
KHAO - Butler County Regional Airport/Hogan Field (24 nm SE)
 
Loc | Ops | Rwys | IFR | FBO | Links
Com | Nav | Svcs | Stats | Notes
Area around 12I (Brookville Reservoir Seaplane Base)
 
Road maps at: MapQuest Bing Google
 
Aerial photo
No photo
 
Sectional chart

 
Airport distance calculator
Flying to Brookville Reservoir Seaplane Base? Find the distance to fly.

From to 12I

Sunrise and sunset
Times for 15-May-2021
 Local
(UTC-4)
 Zulu
(UTC)
Morning civil twilight05:5609:56
Sunrise06:2710:27
Sunset20:4600:46
Evening civil twilight21:1601:16

Current date and time
Zulu (UTC)  15-May-2021 08:42:06
Local (UTC-4)  15-May-2021 04:42:06
 
METAR
KOXD 
10nm E 
150759Z AUTO 00000KT 10SM CLR 08/06 A3026 RMK AO2
KRID 
15nm NE 
150815Z AUTO 00000KT 10SM CLR 06/02 A3027 RMK AO2
KHLB 
17nm SW 
150815Z AUTO 00000KT 10SM CLR 06/05 A3026 RMK A01
KI67 
20nm SE 
150815Z AUTO 00000KT 10SM CLR 04/03 A3027 RMK AO1
TAF
KCVG 
33nm SE 
150527Z 1506/1612 VRB03KT P6SM BKN250 FM151600 17006KT P6SM BKN200 FM152200 19005KT P6SM BKN120 FM160500 17004KT P6SM BKN060
KLUK 
38nm SE 
150527Z 1506/1606 00000KT P6SM BKN250 FM151600 17005KT P6SM BKN200 FM152200 VRB03KT P6SM BKN120 FM160500 VRB03KT P6SM BKN060
NOTAMs
Click for the latest NOTAMs
NOTAMs are issued by the DoD/FAA and will open in a separate window not controlled by AirNav.

 

 
 

Where to Eat: Catering, Restaurants, Food shops

  
 Business Name 
 
 Contact 
 
 Services / Description 
 
Distance
 
Comments
  
Ainsley's Waterfront Cafe' and Harbor Bar no information available

If you are affiliated with Ainsley's Waterfront Cafe' and Harbor Bar and would like to show here your services, contact info, web link, logo, and more, click here
1 mile  
   write
 

Would you like to see your business listed on this page?

 If your business provides an interesting product or service to pilots, flight crews, aircraft, or users of the Brookville Reservoir Seaplane Base, you should consider listing it here.  To start the listing process, click on the button below
 
Add a business
 

Other Pages about Brookville Reservoir Seaplane Base

Update a link
 
Copyright © AirNav, LLC. All rights reserved. Privacy Policy  Contact